createdAt,value
2019-03-03T00:00:38.143Z,5.40
2019-03-03T00:03:09.365Z,5.00
2019-03-03T00:05:40.565Z,5.37
2019-03-03T00:08:11.830Z,5.63
2019-03-03T00:10:43.168Z,4.83
2019-03-03T00:13:14.417Z,4.90
2019-03-03T00:15:45.602Z,4.83
2019-03-03T00:18:16.904Z,5.00
2019-03-03T00:20:48.179Z,4.50
2019-03-03T00:23:19.497Z,4.57
2019-03-03T00:25:50.803Z,4.60
2019-03-03T00:28:22.070Z,4.10
2019-03-03T00:30:53.393Z,4.07
2019-03-03T00:33:24.667Z,3.80
2019-03-03T00:35:55.945Z,3.97
2019-03-03T00:38:40.725Z,4.07
2019-03-03T00:41:23.712Z,3.33
2019-03-03T00:44:12.540Z,3.53
2019-03-03T00:47:05.820Z,3.57
2019-03-03T00:50:14.005Z,2.90
2019-03-03T00:53:06.947Z,3.20
2019-03-03T00:55:55.683Z,2.57
2019-03-03T00:58:40.838Z,3.70
2019-03-03T01:01:21.272Z,2.90
2019-03-03T01:04:20.626Z,2.60
2019-03-03T01:07:04.455Z,2.50
2019-03-03T01:09:41.396Z,2.27
2019-03-03T01:12:17.886Z,2.30
2019-03-03T01:15:04.771Z,2.67
2019-03-03T01:17:42.256Z,2.30
2019-03-03T01:20:22.557Z,2.60
2019-03-03T01:22:59.645Z,2.23
2019-03-03T01:25:30.947Z,2.40
2019-03-03T01:28:02.236Z,2.00
2019-03-03T01:30:33.506Z,2.37
2019-03-03T01:33:04.970Z,2.37
2019-03-03T01:35:36.246Z,2.00
2019-03-03T01:38:07.604Z,2.17
2019-03-03T01:40:38.845Z,2.37
2019-03-03T01:43:13.433Z,1.93
2019-03-03T01:45:44.689Z,2.10
2019-03-03T01:48:16.012Z,2.13
2019-03-03T01:50:47.432Z,2.17
2019-03-03T01:53:18.694Z,1.80
2019-03-03T01:55:50.012Z,2.00
2019-03-03T01:58:21.285Z,2.17
2019-03-03T02:00:52.630Z,2.20
2019-03-03T02:03:24.218Z,1.80
2019-03-03T02:05:55.542Z,2.00
2019-03-03T02:08:26.845Z,2.30
2019-03-03T02:10:58.276Z,2.07
2019-03-03T02:13:32.787Z,1.80
2019-03-03T02:16:04.700Z,2.00
2019-03-03T02:18:35.990Z,2.10
2019-03-03T02:21:07.354Z,2.53
2019-03-03T02:23:38.640Z,2.30
2019-03-03T02:26:09.950Z,2.13
2019-03-03T02:28:41.283Z,2.63
2019-03-03T02:31:12.603Z,2.03
2019-03-03T02:33:43.897Z,2.10
2019-03-03T02:36:15.150Z,2.00
2019-03-03T02:38:46.410Z,2.07
2019-03-03T02:41:17.719Z,2.20
2019-03-03T02:43:48.947Z,2.57
2019-03-03T02:46:20.278Z,2.53
2019-03-03T02:48:51.592Z,2.30
2019-03-03T02:51:22.893Z,2.50
2019-03-03T02:53:54.238Z,2.50
2019-03-03T02:56:25.569Z,2.30
2019-03-03T02:58:56.882Z,2.53
2019-03-03T03:01:45.191Z,2.30
2019-03-03T03:04:16.520Z,2.50
2019-03-03T03:07:02.843Z,2.63
2019-03-03T03:09:56.681Z,2.43
2019-03-03T03:12:49.621Z,2.03
2019-03-03T03:15:40.560Z,2.23
2019-03-03T03:18:33.222Z,2.67
2019-03-03T03:21:26.371Z,2.70
2019-03-03T03:24:19.743Z,2.50
2019-03-03T03:26:56.625Z,2.50
2019-03-03T03:29:44.763Z,2.60
2019-03-03T03:32:33.318Z,2.80
2019-03-03T03:35:13.151Z,2.70
2019-03-03T03:38:06.421Z,2.77
2019-03-03T03:41:08.854Z,2.47
2019-03-03T03:43:56.476Z,2.53
2019-03-03T03:46:39.619Z,2.77
2019-03-03T03:49:33.718Z,2.57
2019-03-03T03:52:32.734Z,2.67
2019-03-03T03:55:38.432Z,2.63
2019-03-03T03:58:17.524Z,2.43
2019-03-03T04:01:26.199Z,2.53
2019-03-03T04:04:19.179Z,2.90
2019-03-03T04:06:59.907Z,2.57
2019-03-03T04:09:38.509Z,2.40
2019-03-03T04:12:15.969Z,2.80
2019-03-03T04:15:06.123Z,2.87
2019-03-03T04:17:59.503Z,3.00
2019-03-03T04:21:01.521Z,2.90
2019-03-03T04:23:54.434Z,2.50
2019-03-03T04:26:43.119Z,3.10
2019-03-03T04:29:39.668Z,2.90
2019-03-03T04:32:36.948Z,2.90
2019-03-03T04:35:27.203Z,3.07
2019-03-03T04:38:12.454Z,3.20
2019-03-03T04:40:51.454Z,2.83
2019-03-03T04:43:30.665Z,2.83
2019-03-03T04:46:11.582Z,2.77
2019-03-03T04:48:57.679Z,2.97
2019-03-03T04:51:54.006Z,2.70
2019-03-03T04:54:44.211Z,3.23
2019-03-03T04:57:30.209Z,3.17
2019-03-03T05:00:20.510Z,3.30
2019-03-03T05:02:58.778Z,3.30
2019-03-03T05:05:39.632Z,2.80
2019-03-03T05:08:16.179Z,3.23
2019-03-03T05:10:55.171Z,3.40
2019-03-03T05:13:45.356Z,3.03
2019-03-03T05:16:33.090Z,3.40
2019-03-03T05:19:15.601Z,3.97
2019-03-03T05:21:50.031Z,3.60
2019-03-03T05:24:21.329Z,3.80
2019-03-03T05:26:52.673Z,2.80
2019-03-03T05:29:24.006Z,2.90
2019-03-03T05:31:55.285Z,3.37
2019-03-03T05:34:26.582Z,3.60
2019-03-03T05:36:57.857Z,3.20
2019-03-03T05:39:29.196Z,3.30
2019-03-03T05:42:00.486Z,3.20
2019-03-03T05:44:31.765Z,2.93
2019-03-03T05:47:03.043Z,3.27
2019-03-03T05:49:34.385Z,2.97
2019-03-03T05:52:05.714Z,3.30
2019-03-03T05:54:37.007Z,3.30
2019-03-03T05:57:08.339Z,3.20
2019-03-03T05:59:39.637Z,4.03
2019-03-03T06:02:11.032Z,3.80
2019-03-03T06:04:42.305Z,3.00
2019-03-03T06:07:13.608Z,2.97
2019-03-03T06:09:44.918Z,3.20
2019-03-03T06:12:16.246Z,3.23
2019-03-03T06:14:47.551Z,3.47
2019-03-03T06:17:18.811Z,3.30
2019-03-03T06:19:50.175Z,2.90
2019-03-03T06:22:21.842Z,3.30
2019-03-03T06:24:53.151Z,3.33
2019-03-03T06:27:24.483Z,3.07
2019-03-03T06:29:55.767Z,4.00
2019-03-03T06:32:27.208Z,2.90
2019-03-03T06:34:58.485Z,3.13
2019-03-03T06:37:33.355Z,3.30
2019-03-03T06:40:05.167Z,2.90
2019-03-03T06:42:36.435Z,3.27
2019-03-03T06:45:08.972Z,3.27
2019-03-03T06:47:40.324Z,3.60
2019-03-03T06:50:12.778Z,3.37
2019-03-03T06:52:44.132Z,3.67
2019-03-03T06:55:15.515Z,3.70
2019-03-03T06:57:46.774Z,4.00
2019-03-03T07:00:18.837Z,4.20
2019-03-03T07:02:50.117Z,4.80
2019-03-03T07:05:21.510Z,4.83
2019-03-03T07:07:52.882Z,4.30
2019-03-03T07:10:24.188Z,4.33
2019-03-03T07:12:55.545Z,4.30
2019-03-03T07:15:26.829Z,3.80
2019-03-03T07:17:58.189Z,3.87
2019-03-03T07:20:29.493Z,4.53
2019-03-03T07:23:00.769Z,4.23
2019-03-03T07:25:32.755Z,4.73
2019-03-03T07:28:04.146Z,4.07
2019-03-03T07:30:35.499Z,4.60
2019-03-03T07:33:24.303Z,4.27
2019-03-03T07:35:55.567Z,4.43
2019-03-03T07:38:26.929Z,4.33
2019-03-03T07:40:58.232Z,4.53
2019-03-03T07:43:29.564Z,3.97
2019-03-03T07:46:00.919Z,4.67
2019-03-03T07:48:32.222Z,4.43
2019-03-03T07:51:03.546Z,4.13
2019-03-03T07:53:34.868Z,4.03
2019-03-03T07:56:06.131Z,4.53
2019-03-03T07:58:37.432Z,4.47
2019-03-03T08:01:08.779Z,4.60
2019-03-03T08:03:40.153Z,4.23
2019-03-03T08:06:11.434Z,4.20
2019-03-03T08:08:42.742Z,4.13
2019-03-03T08:11:17.099Z,4.67
2019-03-03T08:13:48.472Z,4.73
2019-03-03T08:16:19.770Z,4.60
2019-03-03T08:18:51.087Z,4.40
2019-03-03T08:21:22.463Z,4.60
2019-03-03T08:23:56.709Z,5.03
2019-03-03T08:26:28.036Z,4.97
2019-03-03T08:28:59.342Z,4.53
2019-03-03T08:31:30.635Z,5.53
2019-03-03T08:34:02.001Z,5.33
2019-03-03T08:36:33.358Z,5.00
2019-03-03T08:39:05.218Z,5.23
2019-03-03T08:41:38.142Z,5.67
2019-03-03T08:44:13.563Z,5.50
2019-03-03T08:47:02.446Z,5.37
2019-03-03T08:49:39.626Z,5.63
2019-03-03T08:52:15.775Z,5.90
2019-03-03T08:55:24.128Z,5.53
2019-03-03T08:58:29.271Z,5.93
2019-03-03T09:01:19.567Z,5.80
2019-03-03T09:04:01.023Z,6.13
2019-03-03T09:06:51.167Z,6.00
2019-03-03T09:09:50.132Z,5.77
2019-03-03T09:12:38.718Z,6.03
2019-03-03T09:15:35.730Z,6.60
2019-03-03T09:18:38.177Z,5.90
2019-03-03T09:21:28.315Z,6.33
2019-03-03T09:24:18.541Z,6.70
2019-03-03T09:27:12.558Z,5.87
2019-03-03T09:29:57.749Z,5.40
2019-03-03T09:32:38.443Z,5.23
2019-03-03T09:35:34.791Z,5.30
2019-03-03T09:38:30.856Z,5.00
2019-03-03T09:41:28.032Z,5.10
2019-03-03T09:44:10.526Z,5.40
2019-03-03T09:47:16.017Z,5.60
2019-03-03T09:50:06.129Z,6.23
2019-03-03T09:52:56.265Z,6.70
2019-03-03T09:55:49.236Z,8.03
2019-03-03T09:58:54.667Z,7.73
2019-03-03T10:01:50.595Z,8.03
2019-03-03T10:04:46.481Z,8.17
2019-03-03T10:07:36.265Z,8.00
2019-03-03T10:10:39.465Z,6.90
2019-03-03T10:13:17.775Z,6.50
2019-03-03T10:15:58.830Z,6.03
2019-03-03T10:18:51.859Z,5.83
2019-03-03T10:21:51.047Z,5.40
2019-03-03T10:24:39.599Z,5.10
2019-03-03T10:27:32.567Z,5.00
2019-03-03T10:30:28.575Z,4.40
2019-03-03T10:33:27.681Z,5.17
2019-03-03T10:36:19.327Z,5.00
2019-03-03T10:39:12.296Z,4.80
2019-03-03T10:42:00.986Z,4.97
2019-03-03T10:44:51.093Z,4.50
2019-03-03T10:47:42.974Z,4.47
2019-03-03T10:50:24.957Z,4.47
2019-03-03T10:53:13.726Z,4.63
2019-03-03T10:56:02.417Z,4.63
2019-03-03T10:58:50.372Z,4.40
2019-03-03T11:01:52.758Z,4.37
2019-03-03T11:04:48.962Z,5.00
2019-03-03T11:07:43.967Z,3.77
2019-03-03T11:10:36.963Z,4.00
2019-03-03T11:13:24.277Z,4.13
2019-03-03T11:16:15.172Z,3.80
2019-03-03T11:18:59.908Z,4.03
2019-03-03T11:21:56.035Z,3.90
2019-03-03T11:24:47.703Z,3.03
2019-03-03T11:27:27.861Z,3.30
2019-03-03T11:30:21.043Z,2.80
2019-03-03T11:33:17.007Z,2.53
2019-03-03T11:36:25.189Z,2.43
2019-03-03T11:39:13.591Z,2.67
2019-03-03T11:42:08.289Z,2.30
2019-03-03T11:44:49.324Z,2.30
2019-03-03T11:47:38.171Z,2.33
2019-03-03T11:50:29.304Z,1.60
2019-03-03T11:53:22.529Z,1.73
2019-03-03T11:56:03.858Z,2.00
2019-03-03T11:58:54.040Z,2.03
2019-03-03T12:01:47.047Z,2.00
2019-03-03T12:04:40.019Z,1.70
2019-03-03T12:07:25.269Z,1.90
2019-03-03T12:10:21.633Z,2.00
2019-03-03T12:13:06.205Z,2.20
2019-03-03T12:15:59.190Z,2.23
2019-03-03T12:18:44.468Z,3.10
2019-03-03T12:21:27.204Z,3.33
2019-03-03T12:24:05.134Z,3.40
2019-03-03T12:26:46.079Z,3.33
2019-03-03T12:29:35.035Z,3.30
2019-03-03T12:32:25.194Z,3.20
2019-03-03T12:35:30.627Z,3.27
2019-03-03T12:38:24.387Z,3.40
2019-03-03T12:41:18.114Z,3.33
2019-03-03T12:44:08.506Z,4.20
2019-03-03T12:46:58.654Z,4.33
2019-03-03T12:49:37.295Z,3.90
2019-03-03T12:52:17.366Z,3.37
2019-03-03T12:55:22.770Z,3.73
2019-03-03T12:58:11.188Z,2.93
2019-03-03T13:00:59.826Z,3.00
2019-03-03T13:04:07.954Z,3.00
2019-03-03T13:07:00.905Z,2.80
2019-03-03T13:09:47.485Z,2.80
2019-03-03T13:12:36.074Z,2.37
2019-03-03T13:15:31.658Z,2.60
2019-03-03T13:18:33.938Z,2.90
2019-03-03T13:21:13.204Z,2.97
2019-03-03T13:24:56.461Z,3.13
2019-03-03T13:28:23.818Z,3.10
2019-03-03T13:32:10.259Z,3.40
2019-03-03T13:36:38.876Z,2.93
2019-03-03T13:38:49.233Z,3.00
2019-03-03T13:42:22.319Z,2.50
2019-03-03T13:45:48.142Z,2.30
2019-03-03T13:49:22.649Z,2.33
2019-03-03T13:52:07.946Z,2.43
2019-03-03T13:55:27.483Z,2.13
2019-03-03T13:57:59.874Z,2.60
2019-03-03T14:00:31.194Z,2.50
2019-03-03T14:03:02.585Z,2.20
2019-03-03T14:05:33.892Z,2.70
2019-03-03T14:08:05.205Z,2.70
2019-03-03T14:10:36.519Z,2.50
2019-03-03T14:13:08.192Z,2.80
2019-03-03T14:15:39.453Z,2.83
2019-03-03T14:18:10.769Z,2.60
2019-03-03T14:20:42.074Z,2.90
2019-03-03T14:23:52.646Z,3.00
2019-03-03T14:27:15.329Z,2.93
2019-03-03T14:29:44.017Z,3.00
2019-03-03T14:32:18.120Z,3.70
2019-03-03T14:34:49.568Z,3.40
2019-03-03T14:37:49.434Z,3.20
2019-03-03T14:40:21.598Z,2.87
2019-03-03T14:42:52.983Z,3.03
2019-03-03T14:45:24.228Z,3.03
2019-03-03T14:47:55.515Z,3.77
2019-03-03T14:50:26.847Z,3.40
2019-03-03T14:52:58.162Z,3.17
2019-03-03T14:55:29.450Z,4.10
2019-03-03T14:58:00.714Z,3.33
2019-03-03T15:00:33.841Z,3.97
2019-03-03T15:03:07.595Z,3.43
2019-03-03T15:05:38.910Z,3.40
2019-03-03T15:08:10.164Z,3.30
2019-03-03T15:10:41.481Z,2.90
2019-03-03T15:13:12.805Z,3.60
2019-03-03T15:15:44.226Z,4.10
2019-03-03T15:18:15.527Z,3.50
2019-03-03T15:20:47.237Z,3.30
2019-03-03T15:23:18.493Z,3.37
2019-03-03T15:25:49.814Z,3.33
2019-03-03T15:28:21.272Z,3.30
2019-03-03T15:30:52.556Z,3.73
2019-03-03T15:33:23.852Z,3.40
2019-03-03T15:35:55.349Z,3.20
2019-03-03T15:38:26.650Z,3.43
2019-03-03T15:40:57.916Z,3.37
2019-03-03T15:43:29.195Z,3.57
2019-03-03T15:46:00.495Z,3.50
2019-03-03T15:48:31.829Z,3.87
2019-03-03T15:51:03.098Z,4.10
2019-03-03T15:53:34.432Z,3.70
2019-03-03T15:56:05.914Z,3.60
2019-03-03T15:58:37.224Z,3.17
2019-03-03T16:01:15.819Z,3.60
2019-03-03T16:03:47.199Z,3.80
2019-03-03T16:06:18.498Z,3.53
2019-03-03T16:08:49.769Z,3.70
2019-03-03T16:11:21.006Z,3.80
2019-03-03T16:13:52.339Z,3.67
2019-03-03T16:16:23.631Z,3.60
2019-03-03T16:18:54.877Z,3.37
2019-03-03T16:21:26.188Z,4.00
2019-03-03T16:23:57.499Z,3.93
2019-03-03T16:26:28.761Z,3.50
2019-03-03T16:29:00.024Z,3.03
2019-03-03T16:31:31.412Z,3.50
2019-03-03T16:34:02.735Z,3.60
2019-03-03T16:36:34.070Z,3.13
2019-03-03T16:39:06.902Z,3.20
2019-03-03T16:41:38.374Z,3.10
2019-03-03T16:44:09.711Z,2.93
2019-03-03T16:46:40.940Z,3.27
2019-03-03T16:49:12.170Z,3.30
2019-03-03T16:51:43.464Z,3.40
2019-03-03T16:54:14.732Z,3.60
2019-03-03T16:56:45.995Z,3.00
2019-03-03T16:59:17.294Z,3.03
2019-03-03T17:01:48.614Z,3.20
2019-03-03T17:04:19.927Z,3.00
2019-03-03T17:06:51.264Z,3.53
2019-03-03T17:09:22.559Z,3.03
2019-03-03T17:11:53.983Z,3.07
2019-03-03T17:14:25.302Z,2.70
2019-03-03T17:16:56.572Z,2.90
2019-03-03T17:19:27.843Z,3.47
2019-03-03T17:21:59.130Z,2.90
2019-03-03T17:24:30.572Z,3.37
2019-03-03T17:27:01.999Z,3.07
2019-03-03T17:29:33.289Z,2.80
2019-03-03T17:32:04.576Z,3.00
2019-03-03T17:34:36.058Z,2.67
2019-03-03T17:37:07.355Z,2.90
2019-03-03T17:39:38.763Z,2.33
2019-03-03T17:42:10.040Z,2.93
2019-03-03T17:44:41.343Z,2.80
2019-03-03T17:47:12.701Z,2.43
2019-03-03T17:49:46.479Z,2.57
2019-03-03T17:52:17.263Z,2.67
2019-03-03T17:54:48.546Z,2.67
2019-03-03T17:57:19.819Z,3.07
2019-03-03T17:59:51.144Z,2.50
2019-03-03T18:02:22.569Z,2.70
2019-03-03T18:04:53.833Z,2.60
2019-03-03T18:07:25.171Z,2.70
2019-03-03T18:09:56.508Z,2.63
2019-03-03T18:12:27.920Z,2.33
2019-03-03T18:14:59.249Z,2.50
2019-03-03T18:17:30.575Z,2.67
2019-03-03T18:20:01.819Z,2.70
2019-03-03T18:22:33.097Z,2.37
2019-03-03T18:25:04.497Z,2.90
2019-03-03T18:27:35.831Z,2.93
2019-03-03T18:30:10.262Z,2.80
2019-03-03T18:32:41.686Z,3.10
2019-03-03T18:35:13.668Z,2.80
2019-03-03T18:37:45.048Z,3.03
2019-03-03T18:40:18.679Z,3.00
2019-03-03T18:42:50.153Z,3.37
2019-03-03T18:45:21.800Z,3.77
2019-03-03T18:47:53.192Z,3.00
2019-03-03T18:50:24.566Z,3.00
2019-03-03T18:52:55.871Z,2.87
2019-03-03T18:55:27.188Z,3.40
2019-03-03T18:57:58.498Z,3.20
2019-03-03T19:00:29.838Z,2.97
2019-03-03T19:03:01.163Z,3.10
2019-03-03T19:05:32.481Z,2.93
2019-03-03T19:08:03.795Z,3.67
2019-03-03T19:10:35.224Z,3.20
2019-03-03T19:13:06.726Z,3.17
2019-03-03T19:15:38.063Z,3.77
2019-03-03T19:18:09.405Z,3.77
2019-03-03T19:20:40.709Z,3.50
2019-03-03T19:23:12.003Z,4.37
2019-03-03T19:25:43.380Z,3.10
2019-03-03T19:28:14.692Z,3.67
2019-03-03T19:30:46.065Z,3.13
2019-03-03T19:33:25.955Z,3.10
2019-03-03T19:35:57.415Z,3.17
2019-03-03T19:38:29.946Z,3.20
2019-03-03T19:41:01.408Z,3.40
2019-03-03T19:43:32.807Z,3.53
2019-03-03T19:46:04.358Z,3.53
2019-03-03T19:48:36.035Z,3.20
2019-03-03T19:51:08.258Z,3.27
2019-03-03T19:53:39.565Z,3.40
2019-03-03T19:56:10.908Z,3.30
2019-03-03T19:58:42.235Z,3.40
2019-03-03T20:01:13.543Z,3.37
2019-03-03T20:03:44.845Z,3.93
2019-03-03T20:06:16.194Z,3.13
2019-03-03T20:08:47.522Z,3.40
2019-03-03T20:11:18.874Z,3.00
2019-03-03T20:13:50.230Z,3.63
2019-03-03T20:16:21.597Z,3.67
2019-03-03T20:18:52.964Z,3.50
2019-03-03T20:21:24.329Z,3.40
2019-03-03T20:23:55.671Z,3.43
2019-03-03T20:26:27.034Z,3.10
2019-03-03T20:28:58.434Z,3.30
2019-03-03T20:31:29.759Z,3.27
2019-03-03T20:34:01.449Z,3.43
2019-03-03T20:36:32.960Z,3.37
2019-03-03T20:39:05.712Z,3.07
2019-03-03T20:41:37.060Z,3.00
2019-03-03T20:44:08.997Z,3.10
2019-03-03T20:46:41.764Z,3.50
2019-03-03T20:49:13.073Z,3.13
2019-03-03T20:51:51.202Z,3.27
2019-03-03T20:54:22.666Z,3.10
2019-03-03T20:56:54.018Z,3.60
2019-03-03T20:59:25.369Z,3.57
2019-03-03T21:01:57.355Z,3.37
2019-03-03T21:04:28.740Z,3.30
2019-03-03T21:07:00.062Z,3.77
2019-03-03T21:09:31.402Z,2.80
2019-03-03T21:12:02.984Z,3.33
2019-03-03T21:14:34.250Z,3.17
2019-03-03T21:17:05.605Z,2.90
2019-03-03T21:19:36.955Z,2.90
2019-03-03T21:22:08.216Z,2.80
2019-03-03T21:24:39.831Z,2.80
2019-03-03T21:27:11.147Z,3.13
2019-03-03T21:29:42.508Z,2.83
2019-03-03T21:32:14.627Z,2.53
2019-03-03T21:34:45.991Z,2.63
2019-03-03T21:37:17.300Z,2.73
2019-03-03T21:39:48.604Z,2.60
2019-03-03T21:42:19.945Z,2.70
2019-03-03T21:44:51.247Z,2.57
2019-03-03T21:47:22.569Z,2.53
2019-03-03T21:49:53.880Z,2.73
2019-03-03T21:52:25.206Z,2.50
2019-03-03T21:54:56.575Z,2.40
2019-03-03T21:57:27.837Z,2.73
2019-03-03T21:59:59.108Z,2.47
2019-03-03T22:02:30.449Z,2.27
2019-03-03T22:05:01.793Z,2.70
2019-03-03T22:07:33.050Z,2.60
2019-03-03T22:10:04.519Z,2.60
2019-03-03T22:12:35.796Z,2.40
2019-03-03T22:15:07.331Z,2.40
2019-03-03T22:17:38.654Z,2.40
2019-03-03T22:20:09.938Z,2.33
2019-03-03T22:22:41.248Z,2.10
2019-03-03T22:25:12.853Z,2.50
2019-03-03T22:27:44.106Z,2.17
2019-03-03T22:30:15.508Z,2.50
2019-03-03T22:32:52.702Z,2.20
2019-03-03T22:35:23.967Z,2.40
2019-03-03T22:37:55.380Z,2.80
2019-03-03T22:40:26.805Z,2.00
2019-03-03T22:42:58.068Z,2.43
2019-03-03T22:45:29.444Z,2.40
2019-03-03T22:48:00.693Z,2.17
2019-03-03T22:50:31.987Z,2.20
2019-03-03T22:53:03.302Z,2.33
2019-03-03T22:55:40.509Z,2.23
2019-03-03T22:58:12.010Z,1.80
2019-03-03T23:01:21.682Z,2.20
2019-03-03T23:04:45.172Z,2.43
2019-03-03T23:07:45.355Z,2.20
2019-03-03T23:11:10.584Z,2.27
2019-03-03T23:14:05.512Z,2.17
2019-03-03T23:17:12.724Z,2.03
2019-03-03T23:20:11.339Z,2.00
2019-03-03T23:23:51.925Z,2.10
2019-03-03T23:26:23.859Z,1.90
2019-03-03T23:28:55.121Z,2.10
2019-03-03T23:31:26.481Z,1.90
2019-03-03T23:33:57.814Z,1.90
2019-03-03T23:36:29.119Z,2.30
2019-03-03T23:39:00.382Z,2.20
2019-03-03T23:41:31.680Z,2.17
2019-03-03T23:44:02.918Z,1.60
2019-03-03T23:46:34.160Z,2.10
2019-03-03T23:49:05.440Z,1.87
2019-03-03T23:51:36.720Z,2.00
2019-03-03T23:54:08.018Z,2.03
2019-03-03T23:56:39.338Z,1.50
2019-03-03T23:59:10.750Z,1.90
